John F Kennedy International Airport
KJFK : now visible

Airfield :











YOU CAN JOIN US ON...

 
LOGIN :

Register | Disclaimer

   EN    FR    IT 

 









Legend :    VFR   Marginal VFR   IFR   Intensive IFR   Very Intensive IFR
Visi :
Ceiling :
>= 8 km
>= 3000ft
5 to 8 km
1000 to 3000 ft
1500m to 5 km
500 to 1000 ft
800 to 1500m
200 to 500 ft
< 800m
< 200 ft
Symbols :   Thunderstorms  Fog  Heavy snow  Heavy precipitations  Wind > 20 kt






- Airport Elevation : 13 ft
- IATA code : JFK


KJFK - John F Kennedy International

CURRENT METAR :
  • 031851Z 25009KT 10SM FEW037 SCT110 BKN140 BKN250 23/21 A2963 RMK AO2 WSHFT 1756 RAE38 SLP033 P0008 T02330211

EXPIRED METARs :
  • 031816Z 18007KT 5SM RA BR FEW035 BKN100 OVC120 21/19 A2957 RMK AO2 WSHFT 1756 PRESFR P0007 T02060194
  • 031751Z 27018G22KT 7SM RA FEW035 BKN095 OVC140 23/18 A2964 RMK AO2 RAB29 SLP037 P0001 60001 T02330183 10261 20189 56005
  • 031651Z 24006KT 10SM FEW050 BKN140 BKN250 24/17 A2964 RMK AO2 SLP037 CB DSNT SW MOV SE T02440172

TAF KJFK
Valid from the 03 at 18:00 until the 05 at 00:00 UTC


031739Z 0318/0424 24012KT P6SM -RA BKN040 OVC250
TEMPO 0318/0320 5SM -TSRA BKN030CB
FM032300 27010KT P6SM VCSH SCT050 BKN100
FM040300 27006KT P6SM BKN250
FM041400 26008KT P6SM BKN250
FM041700 21011KT P6SM BKN100
KZNY FIR / North America



MET'MAP, your aeronautical weather chart ! - Copyright ORBIFLY December 2007 - Disclaimer

ORBIFLY MET'MAP TEAM :

Programming & Development : Alexandra Zaïnal
Concept & original design : Baudouin d'Aumeries
Assistance for programming : Marc-Olivier Méhu
Technical & hardware support : Manuel Goepfert

Contact : metmap@orbifly.com




SOURCES & CREDITS :

   NOAA       Earth
Advisory